Řízení letového provozu České republiky
Letiste: LKCV Aktualizace: 27.02.2017 10:06:04  UTC
 METAR LKCV 27.02. 10:00 ...
METAR LKCV 271000Z 13009KT CAVOK 10/M01 Q1011 NOSIG=
 TAF LKCV 27.02. 05:00 ...
TAF LKCV 270500Z 2706/2806 13008KT CAVOK      TEMPO 2710/2718 15014KT      BECMG 2723/2801 14010KT SCT035=